Time;durP1;ratioP1;P1;durP2;ratioP2;P2;SDS_P1;SDS_P2;PMS_P1;PMS_P2;Temp;Humidity;BMP_temperature;BMP_pressure;BME280_temperature;BME280_humidity;BME280_pressure;Samples;Min_cycle;Max_cycle;Signal;HPM_P1;HPM_P2
2023/03/27 00:01:52;;;;;;;0.30;0.20;;;5.60;99.90;;;;;;4986911;28;20218;-69
2023/03/27 00:04:20;;;;;;;0.30;0.25;;;5.70;99.90;;;;;;4987401;28;20205;-68
2023/03/27 00:06:47;;;;;;;0.60;0.60;;;5.60;99.90;;;;;;4980245;28;20241;-70
2023/03/27 00:09:15;;;;;;;0.30;0.28;;;5.60;99.90;;;;;;4987023;28;20202;-69
2023/03/27 00:11:42;;;;;;;0.30;0.20;;;5.70;99.90;;;;;;4987341;28;20229;-69
2023/03/27 00:14:11;;;;;;;0.40;0.40;;;5.60;99.90;;;;;;4987063;28;20683;-70
2023/03/27 00:16:37;;;;;;;1.80;1.70;;;5.60;99.90;;;;;;4987631;28;20268;-69
2023/03/27 00:19:04;;;;;;;1.65;0.68;;;5.60;99.90;;;;;;4986247;28;20210;-70
2023/03/27 00:21:33;;;;;;;0.30;0.20;;;5.60;99.90;;;;;;4987758;28;20229;-69
2023/03/27 00:23:59;;;;;;;0.55;0.55;;;5.60;99.90;;;;;;4987547;28;20605;-70
2023/03/27 00:26:29;;;;;;;0.50;0.38;;;5.70;99.90;;;;;;4986788;28;20576;-70
2023/03/27 00:28:56;;;;;;;0.60;0.50;;;5.60;99.90;;;;;;4985703;28;20186;-69
2023/03/27 00:31:24;;;;;;;0.45;0.40;;;5.70;99.90;;;;;;4987484;28;20233;-69
2023/03/27 00:33:51;;;;;;;0.40;0.40;;;5.70;99.90;;;;;;4986860;28;20202;-69
2023/03/27 00:36:18;;;;;;;0.30;0.20;;;5.60;99.90;;;;;;4987741;28;20221;-69
2023/03/27 00:38:45;;;;;;;0.30;0.20;;;5.60;99.90;;;;;;4986465;28;20297;-69
2023/03/27 00:41:12;;;;;;;0.68;0.68;;;5.60;99.90;;;;;;4986970;28;20230;-69
2023/03/27 00:43:42;;;;;;;0.40;0.40;;;5.50;99.90;;;;;;4987427;28;20205;-69
2023/03/27 00:46:31;;;;;;;0.77;0.50;;;5.50;99.90;;;;;;4987323;28;20241;-70
2023/03/27 00:48:59;;;;;;;0.30;0.25;;;5.50;99.90;;;;;;4986373;28;20199;-69
2023/03/27 00:51:27;;;;;;;0.40;0.38;;;5.50;99.90;;;;;;4987522;28;20237;-69
2023/03/27 00:53:56;;;;;;;0.60;0.60;;;5.50;99.90;;;;;;4986773;28;20190;-70
2023/03/27 00:56:23;;;;;;;0.30;0.20;;;5.50;99.90;;;;;;4970113;28;20237;-69
2023/03/27 00:58:53;;;;;;;0.30;0.20;;;5.50;99.90;;;;;;4985944;28;20198;-69
2023/03/27 01:01:21;;;;;;;0.50;0.50;;;5.50;99.90;;;;;;4986173;28;20234;-68
2023/03/27 01:03:50;;;;;;;0.47;0.40;;;5.40;99.90;;;;;;4986992;28;20206;-70
2023/03/27 01:06:18;;;;;;;1.05;0.40;;;5.40;99.90;;;;;;4986530;28;20549;-69
2023/03/27 01:08:47;;;;;;;0.80;0.57;;;5.30;99.90;;;;;;4986216;28;20220;-69
2023/03/27 01:11:26;;;;;;;0.30;0.30;;;5.30;99.90;;;;;;4986878;28;20241;-70
2023/03/27 01:14:08;;;;;;;0.50;0.40;;;5.30;99.90;;;;;;4985373;28;20463;-70
2023/03/27 01:16:46;;;;;;;0.52;0.52;;;5.20;99.90;;;;;;4990129;28;20225;-71
2023/03/27 01:19:50;;;;;;;0.60;0.60;;;5.30;99.90;;;;;;4989789;28;20238;-70
2023/03/27 01:22:41;;;;;;;0.43;0.35;;;5.30;99.90;;;;;;4990664;28;20229;-70
2023/03/27 01:25:37;;;;;;;0.82;0.60;;;5.20;99.90;;;;;;4947494;28;20220;-70
2023/03/27 01:28:25;;;;;;;0.50;0.50;;;5.20;99.90;;;;;;4987770;28;20280;-71
2023/03/27 01:31:00;;;;;;;0.40;0.40;;;5.30;99.90;;;;;;4989586;28;20230;-70
2023/03/27 01:33:57;;;;;;;1.33;0.77;;;5.20;99.90;;;;;;4989469;28;20206;-70
2023/03/27 01:36:48;;;;;;;0.40;0.40;;;5.20;99.90;;;;;;4990852;28;20419;-70
2023/03/27 01:39:33;;;;;;;0.30;0.20;;;5.20;99.90;;;;;;4978247;28;20209;-70
2023/03/27 01:42:06;;;;;;;0.60;0.50;;;5.10;99.90;;;;;;4990476;28;20325;-69
2023/03/27 01:44:44;;;;;;;1.05;1.05;;;5.20;99.90;;;;;;4990610;28;20562;-69
2023/03/27 01:47:25;;;;;;;0.30;0.30;;;5.10;99.90;;;;;;4990358;28;20241;-71
2023/03/27 01:50:01;;;;;;;0.40;0.32;;;5.00;99.90;;;;;;4988866;28;20210;-70
2023/03/27 01:52:32;;;;;;;0.35;0.25;;;5.00;99.90;;;;;;4980015;28;20226;-71
2023/03/27 01:55:08;;;;;;;1.30;0.90;;;4.90;99.90;;;;;;4970931;28;20223;-70
2023/03/27 01:57:41;;;;;;;0.55;0.55;;;4.80;99.90;;;;;;4981193;28;20304;-70
2023/03/27 02:00:16;;;;;;;0.35;0.35;;;4.90;99.90;;;;;;4988614;28;20712;-69
2023/03/27 02:02:48;;;;;;;0.40;0.30;;;4.80;99.90;;;;;;4989568;28;20216;-70
2023/03/27 02:05:18;;;;;;;0.30;0.30;;;4.80;99.90;;;;;;4989643;28;20201;-70
2023/03/27 02:07:52;;;;;;;0.40;0.40;;;4.80;99.90;;;;;;4990080;28;20664;-70
2023/03/27 02:10:24;;;;;;;0.40;0.40;;;4.60;99.90;;;;;;4988054;28;20209;-69
2023/03/27 02:12:58;;;;;;;1.08;1.02;;;4.60;99.90;;;;;;4989381;28;20647;-69
2023/03/27 02:15:30;;;;;;;0.40;0.40;;;4.60;99.90;;;;;;4990109;28;20226;-70
2023/03/27 02:18:03;;;;;;;0.50;0.47;;;4.40;99.90;;;;;;4989642;28;20261;-69
2023/03/27 02:20:31;;;;;;;0.50;0.50;;;4.30;99.90;;;;;;4989323;28;20305;-69
2023/03/27 02:23:00;;;;;;;0.30;0.20;;;4.20;99.90;;;;;;4989468;28;20307;-69
2023/03/27 02:25:31;;;;;;;2.67;2.47;;;4.20;99.90;;;;;;4989223;28;20632;-69
2023/03/27 02:28:17;;;;;;;0.47;0.47;;;4.20;99.90;;;;;;4988100;28;20615;-68
2023/03/27 02:30:51;;;;;;;0.73;0.73;;;4.00;99.90;;;;;;4989241;28;20307;-71
2023/03/27 02:33:27;;;;;;;2.80;1.30;;;4.10;99.90;;;;;;4989139;28;20225;-69
2023/03/27 02:36:01;;;;;;;1.80;0.93;;;4.10;99.90;;;;;;4988646;28;20714;-69
2023/03/27 02:38:36;;;;;;;0.47;0.47;;;4.00;99.90;;;;;;4988933;28;20205;-70
2023/03/27 02:41:15;;;;;;;0.70;0.55;;;3.90;99.90;;;;;;4988985;28;20236;-69
2023/03/27 02:43:47;;;;;;;1.15;0.90;;;4.00;99.90;;;;;;4989750;28;20633;-69
2023/03/27 02:46:23;;;;;;;0.90;0.85;;;4.00;99.90;;;;;;4986842;28;20249;-70
2023/03/27 02:48:55;;;;;;;2.97;0.98;;;3.90;99.90;;;;;;4988249;28;20621;-69
2023/03/27 02:51:28;;;;;;;1.00;1.00;;;3.90;99.90;;;;;;4988850;28;20317;-69
2023/03/27 02:53:59;;;;;;;0.88;0.88;;;3.90;99.90;;;;;;4988820;28;20213;-70
2023/03/27 02:56:32;;;;;;;0.68;0.68;;;3.80;99.90;;;;;;4987613;28;20315;-70
2023/03/27 02:59:04;;;;;;;0.45;0.45;;;3.80;99.90;;;;;;4988057;28;20213;-69
2023/03/27 03:01:33;;;;;;;1.05;1.05;;;3.70;99.90;;;;;;4988133;28;20281;-69
2023/03/27 03:04:06;;;;;;;1.38;1.27;;;3.70;99.90;;;;;;4988901;28;20198;-69
2023/03/27 03:06:35;;;;;;;0.50;0.50;;;3.70;99.90;;;;;;4988221;28;20237;-68
2023/03/27 03:09:05;;;;;;;0.40;0.40;;;3.40;99.90;;;;;;4987715;28;20201;-69
2023/03/27 03:11:34;;;;;;;0.60;0.52;;;3.40;99.90;;;;;;4988219;28;20230;-69
2023/03/27 03:14:03;;;;;;;0.50;0.50;;;3.30;99.90;;;;;;4988571;28;20603;-69
2023/03/27 03:16:30;;;;;;;1.30;0.55;;;3.40;99.90;;;;;;4988533;28;20217;-69
2023/03/27 03:18:57;;;;;;;0.40;0.40;;;3.50;99.90;;;;;;4987604;28;20200;-69
2023/03/27 03:21:24;;;;;;;0.95;0.73;;;3.40;99.90;;;;;;4988360;28;20878;-69
2023/03/27 03:23:51;;;;;;;1.17;1.08;;;3.40;99.90;;;;;;4987725;28;20194;-70
2023/03/27 03:26:18;;;;;;;1.08;1.08;;;3.40;99.90;;;;;;4987559;28;20229;-70
2023/03/27 03:28:47;;;;;;;0.50;0.50;;;3.30;99.90;;;;;;4984820;28;20202;-69
2023/03/27 03:31:14;;;;;;;1.23;0.82;;;3.00;99.90;;;;;;4968945;28;20227;-69
2023/03/27 03:33:41;;;;;;;2.72;1.33;;;3.10;99.90;;;;;;4988107;28;20198;-68
2023/03/27 03:36:09;;;;;;;1.73;1.63;;;3.00;99.90;;;;;;4986955;28;20236;-69
2023/03/27 03:38:36;;;;;;;0.60;0.60;;;3.00;99.90;;;;;;4988001;28;20214;-69
2023/03/27 03:41:03;;;;;;;0.40;0.40;;;2.90;99.90;;;;;;4986497;28;20233;-69
2023/03/27 03:43:32;;;;;;;0.30;0.30;;;2.80;99.90;;;;;;4970968;28;20202;-69
2023/03/27 03:46:00;;;;;;;0.40;0.40;;;2.80;99.90;;;;;;4987523;28;20874;-70
2023/03/27 03:48:27;;;;;;;0.50;0.50;;;2.80;99.90;;;;;;4986871;28;20204;-69
2023/03/27 03:50:54;;;;;;;0.30;0.30;;;2.80;99.90;;;;;;4987390;28;20558;-69
2023/03/27 03:53:21;;;;;;;0.30;0.30;;;3.10;99.90;;;;;;4988103;28;20205;-69
2023/03/27 03:55:52;;;;;;;2.47;1.33;;;2.80;99.90;;;;;;4987977;28;20222;-71
2023/03/27 03:58:19;;;;;;;0.30;0.30;;;2.80;99.90;;;;;;4987132;28;20210;-69
2023/03/27 04:00:46;;;;;;;0.30;0.30;;;2.90;99.90;;;;;;4987835;28;20229;-68
2023/03/27 04:03:14;;;;;;;0.30;0.30;;;2.80;99.90;;;;;;4986974;28;20213;-69
2023/03/27 04:05:42;;;;;;;0.55;0.55;;;2.80;99.90;;;;;;4987122;28;20224;-69
2023/03/27 04:08:10;;;;;;;0.40;0.40;;;2.80;99.90;;;;;;4986713;28;20230;-69
2023/03/27 04:10:40;;;;;;;0.30;0.30;;;2.80;99.90;;;;;;4987707;28;20241;-69
2023/03/27 04:13:07;;;;;;;0.57;0.57;;;2.80;99.90;;;;;;4987482;28;20240;-69
2023/03/27 04:15:35;;;;;;;0.40;0.30;;;2.80;99.90;;;;;;4987616;28;20329;-69
2023/03/27 04:18:02;;;;;;;2.80;0.90;;;2.80;99.90;;;;;;4986276;28;20190;-69
2023/03/27 04:20:33;;;;;;;0.40;0.40;;;2.90;99.90;;;;;;4987835;28;20312;-69
2023/03/27 04:23:02;;;;;;;0.63;0.45;;;2.80;99.90;;;;;;4987443;28;20292;-70
2023/03/27 04:25:29;;;;;;;0.45;0.45;;;2.70;99.90;;;;;;4988034;28;20236;-70
2023/03/27 04:27:57;;;;;;;0.40;0.38;;;2.60;99.90;;;;;;4987365;28;20239;-70
2023/03/27 04:30:26;;;;;;;0.60;0.50;;;2.50;99.90;;;;;;4986153;28;20206;-69
2023/03/27 04:32:58;;;;;;;1.02;1.02;;;2.50;99.90;;;;;;4987160;28;20257;-69
2023/03/27 04:35:25;;;;;;;0.30;0.30;;;2.50;99.90;;;;;;4987007;28;20229;-70
2023/03/27 04:37:53;;;;;;;0.70;0.60;;;2.60;99.90;;;;;;4987632;28;20204;-69
2023/03/27 04:40:20;;;;;;;1.08;1.02;;;2.60;99.90;;;;;;4986470;28;20198;-69
2023/03/27 04:42:48;;;;;;;2.05;1.00;;;2.40;99.90;;;;;;4987122;28;20668;-71
2023/03/27 04:45:19;;;;;;;0.40;0.40;;;2.30;99.90;;;;;;4986553;28;20214;-69
2023/03/27 04:47:47;;;;;;;0.50;0.50;;;2.30;99.90;;;;;;4990620;28;20257;-69
2023/03/27 04:50:15;;;;;;;0.70;0.70;;;2.30;99.90;;;;;;4990371;28;20260;-68
2023/03/27 04:52:42;;;;;;;0.40;0.30;;;2.80;99.90;;;;;;4991521;28;20202;-70
2023/03/27 04:55:11;;;;;;;0.30;0.30;;;2.20;99.90;;;;;;4991504;28;20249;-70
2023/03/27 04:57:38;;;;;;;0.35;0.32;;;2.20;99.90;;;;;;4990804;28;20190;-70
2023/03/27 05:00:14;;;;;;;0.40;0.40;;;2.10;99.90;;;;;;4990350;28;20208;-70
2023/03/27 05:02:41;;;;;;;0.52;0.52;;;2.10;99.90;;;;;;4987030;28;20186;-69
2023/03/27 05:05:09;;;;;;;0.30;0.30;;;2.00;99.90;;;;;;4990097;28;20216;-69
2023/03/27 05:07:36;;;;;;;0.40;0.35;;;2.00;99.90;;;;;;4979310;28;20246;-69
2023/03/27 05:10:04;;;;;;;0.30;0.30;;;2.20;99.90;;;;;;4989354;28;20204;-68
2023/03/27 05:12:32;;;;;;;0.30;0.30;;;2.00;99.90;;;;;;4990778;28;20202;-69
2023/03/27 05:15:02;;;;;;;0.30;0.30;;;1.90;99.90;;;;;;4990863;28;20249;-69
2023/03/27 05:17:31;;;;;;;0.30;0.30;;;1.80;99.90;;;;;;4990420;28;20642;-69
2023/03/27 05:19:58;;;;;;;0.30;0.30;;;1.30;99.90;;;;;;4989834;28;20306;-69
2023/03/27 05:22:27;;;;;;;0.47;0.47;;;1.60;99.90;;;;;;4989798;28;20743;-70
2023/03/27 05:24:57;;;;;;;0.30;0.30;;;1.60;99.90;;;;;;4990605;28;20252;-69
2023/03/27 05:27:24;;;;;;;0.40;0.40;;;1.60;99.90;;;;;;4989425;28;20232;-69
2023/03/27 05:29:52;;;;;;;0.30;0.30;;;2.10;99.90;;;;;;4988288;28;20201;-69
2023/03/27 05:32:19;;;;;;;0.30;0.30;;;1.50;99.90;;;;;;4988789;28;20234;-69
2023/03/27 05:34:49;;;;;;;0.40;0.40;;;1.50;99.90;;;;;;4989458;28;20205;-69
2023/03/27 05:37:16;;;;;;;2.65;2.35;;;1.50;99.90;;;;;;4990181;28;20355;-69
2023/03/27 05:39:45;;;;;;;1.38;0.60;;;1.50;99.90;;;;;;4989821;28;20202;-70
2023/03/27 05:42:12;;;;;;;0.40;0.40;;;1.40;99.90;;;;;;4990202;28;20276;-70
2023/03/27 05:44:39;;;;;;;0.30;0.30;;;2.10;99.90;;;;;;4990846;28;20281;-70
2023/03/27 05:47:09;;;;;;;0.30;0.30;;;1.80;99.90;;;;;;4990088;28;20841;-70
2023/03/27 05:49:35;;;;;;;1.00;0.73;;;1.60;99.90;;;;;;4988608;28;20277;-70
2023/03/27 05:52:03;;;;;;;0.30;0.30;;;1.50;99.90;;;;;;4990309;28;20224;-70
2023/03/27 05:54:29;;;;;;;0.30;0.30;;;1.50;99.90;;;;;;4990227;28;20920;-69
2023/03/27 05:56:56;;;;;;;0.30;0.28;;;1.60;99.90;;;;;;4990163;28;20261;-69
2023/03/27 05:59:23;;;;;;;0.45;0.43;;;1.40;99.90;;;;;;4988528;28;20202;-69
2023/03/27 06:01:51;;;;;;;0.55;0.50;;;1.50;99.90;;;;;;4990088;28;20249;-70
2023/03/27 06:04:20;;;;;;;0.40;0.40;;;1.50;99.90;;;;;;4989158;28;20225;-70
2023/03/27 06:06:47;;;;;;;0.40;0.40;;;1.50;99.90;;;;;;4990218;28;20230;-70
2023/03/27 06:09:14;;;;;;;0.30;0.30;;;1.50;99.90;;;;;;4989127;28;20604;-69
2023/03/27 06:11:41;;;;;;;0.30;0.30;;;1.40;99.90;;;;;;4989907;28;20257;-69
2023/03/27 06:14:09;;;;;;;0.30;0.30;;;1.50;99.90;;;;;;4990184;28;20256;-70
2023/03/27 06:16:36;;;;;;;0.30;0.30;;;1.40;99.90;;;;;;4989478;28;20238;-70
2023/03/27 06:19:03;;;;;;;0.30;0.30;;;1.50;99.90;;;;;;4988365;28;20214;-69
2023/03/27 06:21:31;;;;;;;0.30;0.20;;;1.50;99.90;;;;;;4990020;28;20232;-70
2023/03/27 06:23:58;;;;;;;0.30;0.30;;;1.50;99.90;;;;;;4989790;28;20208;-71
2023/03/27 06:26:26;;;;;;;0.30;0.30;;;1.60;99.90;;;;;;4989508;28;20276;-69
2023/03/27 06:28:55;;;;;;;0.30;0.30;;;1.50;99.90;;;;;;4988870;28;20323;-70
2023/03/27 06:31:21;;;;;;;0.50;0.50;;;1.50;99.90;;;;;;4989012;28;20237;-69
2023/03/27 06:33:49;;;;;;;0.88;0.70;;;1.50;99.90;;;;;;4989628;28;20205;-69
2023/03/27 06:36:16;;;;;;;0.30;0.30;;;1.50;99.90;;;;;;4989330;28;20230;-69
2023/03/27 06:38:46;;;;;;;2.58;1.65;;;1.50;99.90;;;;;;4988528;28;20355;-69
2023/03/27 06:41:13;;;;;;;5.35;0.85;;;1.50;99.90;;;;;;4989299;28;20221;-70
2023/03/27 06:43:40;;;;;;;0.30;0.20;;;1.50;99.90;;;;;;4989139;28;20206;-70
2023/03/27 06:46:07;;;;;;;0.30;0.30;;;1.50;99.90;;;;;;4988975;28;20232;-70
2023/03/27 06:48:33;;;;;;;0.30;0.30;;;1.50;99.90;;;;;;4988097;28;20230;-69
2023/03/27 06:51:00;;;;;;;0.30;0.30;;;2.10;99.90;;;;;;4988584;28;20222;-70
2023/03/27 06:53:28;;;;;;;0.40;0.40;;;1.50;99.90;;;;;;4988013;28;20260;-70
2023/03/27 06:55:56;;;;;;;0.50;0.50;;;1.60;99.90;;;;;;4988977;28;20683;-70
2023/03/27 06:58:23;;;;;;;0.30;0.30;;;1.30;99.90;;;;;;4987036;28;20206;-69
2023/03/27 07:00:50;;;;;;;0.30;0.30;;;1.60;99.90;;;;;;4988989;28;20257;-70
2023/03/27 07:03:19;;;;;;;0.30;0.30;;;1.60;99.90;;;;;;4988111;28;20203;-70
2023/03/27 07:05:47;;;;;;;0.30;0.30;;;1.70;99.90;;;;;;4987526;28;20221;-69
2023/03/27 07:08:16;;;;;;;0.45;0.45;;;1.50;99.90;;;;;;4986386;28;20222;-70
2023/03/27 07:10:43;;;;;;;0.30;0.30;;;1.60;99.90;;;;;;4983906;28;20230;-70
2023/03/27 07:13:12;;;;;;;0.60;0.60;;;1.70;99.90;;;;;;4987136;28;20205;-70
2023/03/27 07:15:38;;;;;;;0.30;0.28;;;1.80;99.90;;;;;;4987675;28;20217;-69
2023/03/27 07:18:08;;;;;;;0.30;0.30;;;1.90;99.90;;;;;;4987437;28;20202;-70
2023/03/27 07:20:35;;;;;;;0.68;0.68;;;2.00;99.90;;;;;;4987786;28;20233;-69
2023/03/27 07:23:02;;;;;;;0.45;0.45;;;2.10;99.90;;;;;;4993365;28;21029;-70
2023/03/27 07:25:35;;;;;;;0.30;0.30;;;2.20;99.90;;;;;;5001071;28;20218;-69
2023/03/27 07:28:05;;;;;;;0.50;0.50;;;2.20;99.50;;;;;;4984996;28;20767;-70
2023/03/27 07:30:34;;;;;;;0.70;0.70;;;2.20;99.30;;;;;;4988489;28;20317;-69
2023/03/27 07:33:01;;;;;;;0.30;0.28;;;2.30;99.00;;;;;;4989032;28;20297;-70
2023/03/27 07:35:28;;;;;;;0.30;0.20;;;2.30;98.70;;;;;;4987546;28;20307;-70
2023/03/27 07:37:58;;;;;;;0.30;0.30;;;2.30;99.90;;;;;;4988086;28;20194;-70
2023/03/27 07:40:25;;;;;;;0.30;0.30;;;2.30;98.60;;;;;;4988144;28;20240;-70
2023/03/27 07:42:52;;;;;;;1.48;0.82;;;2.40;98.30;;;;;;4984258;28;20691;-70
2023/03/27 07:45:21;;;;;;;0.30;0.20;;;2.40;98.10;;;;;;4993422;28;20339;-70
2023/03/27 07:47:50;;;;;;;0.30;0.30;;;2.30;99.90;;;;;;4994223;28;20213;-69
2023/03/27 07:50:20;;;;;;;0.30;0.30;;;2.30;97.70;;;;;;4993413;28;20209;-69
2023/03/27 07:52:48;;;;;;;0.40;0.30;;;2.70;99.90;;;;;;4987788;28;20204;-70
2023/03/27 07:55:17;;;;;;;0.43;0.43;;;2.60;97.90;;;;;;4988329;28;20202;-69
2023/03/27 07:57:46;;;;;;;0.40;0.40;;;2.70;97.80;;;;;;4988260;28;20201;-70
2023/03/27 08:00:14;;;;;;;0.60;0.30;;;2.70;97.70;;;;;;4986777;28;20197;-70
2023/03/27 08:02:42;;;;;;;0.30;0.30;;;2.70;97.10;;;;;;4987029;28;20206;-69
2023/03/27 08:05:11;;;;;;;0.30;0.20;;;2.60;99.90;;;;;;4985451;28;20210;-69
2023/03/27 08:07:39;;;;;;;1.15;0.75;;;2.70;99.90;;;;;;4982596;28;20237;-69
2023/03/27 08:10:08;;;;;;;0.30;0.30;;;2.60;96.50;;;;;;4987625;28;20312;-69
2023/03/27 08:12:36;;;;;;;0.50;0.40;;;2.60;96.50;;;;;;4995025;28;20293;-68
2023/03/27 08:15:03;;;;;;;0.63;0.60;;;2.70;95.70;;;;;;4995118;28;20298;-69
2023/03/27 08:17:31;;;;;;;0.30;0.20;;;3.00;96.40;;;;;;4986901;28;20293;-69
2023/03/27 08:19:59;;;;;;;0.60;0.47;;;3.10;95.90;;;;;;4986538;28;20193;-69
2023/03/27 08:22:27;;;;;;;0.93;0.50;;;3.10;94.60;;;;;;4986993;28;20272;-69
2023/03/27 08:24:54;;;;;;;0.32;0.32;;;3.10;95.70;;;;;;4987564;28;20204;-69
2023/03/27 08:27:21;;;;;;;0.60;0.57;;;3.10;94.90;;;;;;4987197;28;20240;-69
2023/03/27 08:29:48;;;;;;;0.30;0.20;;;2.80;99.90;;;;;;4984111;28;20200;-68
2023/03/27 08:32:15;;;;;;;0.35;0.35;;;2.90;94.70;;;;;;4983293;28;20218;-69
2023/03/27 08:34:42;;;;;;;0.30;0.20;;;2.80;94.80;;;;;;4986880;28;20333;-69
2023/03/27 08:37:09;;;;;;;0.40;0.30;;;3.60;99.90;;;;;;4986225;28;20214;-69
2023/03/27 08:39:37;;;;;;;0.30;0.30;;;3.10;95.30;;;;;;4983014;28;20752;-69
2023/03/27 08:42:08;;;;;;;0.50;0.50;;;3.20;94.30;;;;;;4986512;28;20313;-70
2023/03/27 08:44:37;;;;;;;0.57;0.45;;;2.70;97.80;;;;;;4986199;28;20206;-69
2023/03/27 08:47:10;;;;;;;2.63;1.45;;;3.00;99.90;;;;;;4986890;28;20246;-69
2023/03/27 08:49:41;;;;;;;0.30;0.20;;;3.00;93.60;;;;;;4985846;28;20229;-69
2023/03/27 08:52:14;;;;;;;0.52;0.52;;;3.30;93.50;;;;;;4986514;28;20230;-69
2023/03/27 08:54:44;;;;;;;0.30;0.28;;;3.30;92.70;;;;;;4987572;28;20198;-69
2023/03/27 08:57:18;;;;;;;0.30;0.28;;;4.00;99.90;;;;;;4986651;28;20240;-69
2023/03/27 08:59:46;;;;;;;0.30;0.20;;;3.40;92.80;;;;;;4986511;28;20202;-69
2023/03/27 09:02:22;;;;;;;0.30;0.20;;;3.60;92.10;;;;;;4993174;28;20320;-69
2023/03/27 09:04:58;;;;;;;0.30;0.20;;;3.70;91.80;;;;;;4998028;28;20204;-69
2023/03/27 09:07:33;;;;;;;0.35;0.28;;;3.70;91.60;;;;;;4993568;28;20229;-70
2023/03/27 09:10:09;;;;;;;1.90;0.80;;;3.80;92.40;;;;;;4985961;28;20248;-69
2023/03/27 09:12:51;;;;;;;0.30;0.30;;;3.90;92.00;;;;;;4987167;28;20201;-70
2023/03/27 09:15:24;;;;;;;0.70;0.50;;;3.90;99.90;;;;;;4971717;28;20245;-70
2023/03/27 09:17:55;;;;;;;0.30;0.22;;;4.00;91.20;;;;;;4986555;28;20810;-69
2023/03/27 09:20:28;;;;;;;0.30;0.20;;;4.30;90.60;;;;;;4984084;28;20210;-69
2023/03/27 09:23:04;;;;;;;0.30;0.30;;;4.40;94.20;;;;;;4986571;28;20202;-70
2023/03/27 09:25:36;;;;;;;0.30;0.20;;;4.30;90.30;;;;;;4985834;28;20324;-69
2023/03/27 09:28:11;;;;;;;0.40;0.30;;;4.20;99.90;;;;;;4985242;28;20316;-68
2023/03/27 09:30:38;;;;;;;0.30;0.22;;;4.40;96.60;;;;;;4986612;28;20877;-69
2023/03/27 09:33:06;;;;;;;0.30;0.20;;;4.20;88.50;;;;;;4987904;28;20289;-69
2023/03/27 09:35:37;;;;;;;0.50;0.50;;;4.30;99.40;;;;;;4986433;28;20633;-69
2023/03/27 09:38:19;;;;;;;0.30;0.28;;;4.40;88.10;;;;;;4999730;28;20205;-69
2023/03/27 09:40:52;;;;;;;0.30;0.30;;;5.10;94.20;;;;;;5001691;28;20304;-69
2023/03/27 09:43:22;;;;;;;0.30;0.20;;;4.70;88.50;;;;;;4991756;28;20202;-69
2023/03/27 09:45:51;;;;;;;0.30;0.25;;;5.00;89.00;;;;;;4990783;28;20950;-69
2023/03/27 09:48:27;;;;;;;0.30;0.30;;;5.10;87.60;;;;;;4990235;28;20237;-69
2023/03/27 12:11:57;;;;;;;0.75;0.75;;;6.50;70.50;;;;;;4986112;28;20194;-68
2023/03/27 12:22:14;;;;;;;0.70;0.70;;;6.30;63.70;;;;;;4986716;28;20194;-68
2023/03/27 12:25:24;;;;;;;0.40;0.28;;;6.30;64.50;;;;;;4988705;28;20277;-68
2023/03/27 12:32:15;;;;;;;0.40;0.40;;;6.80;63.80;;;;;;4987406;28;20232;-70
2023/03/27 12:35:07;;;;;;;1.52;1.42;;;6.80;64.70;;;;;;4988088;28;20298;-68
2023/03/27 12:40:59;;;;;;;2.20;2.00;;;6.50;80.60;;;;;;4951678;28;20218;-68
2023/03/27 12:47:26;;;;;;;0.50;0.38;;;6.50;66.40;;;;;;4985630;28;20189;-68
2023/03/27 12:50:20;;;;;;;0.40;0.40;;;6.50;67.00;;;;;;4986967;28;20213;-68
2023/03/27 12:56:56;;;;;;;0.70;0.35;;;6.10;68.20;;;;;;4987817;28;20240;-68
2023/03/27 13:00:09;;;;;;;0.30;0.20;;;6.10;68.40;;;;;;4986408;28;20202;-69
2023/03/27 13:06:59;;;;;;;0.30;0.20;;;6.70;65.90;;;;;;4907816;29;21168;-68
2023/03/27 13:10:06;;;;;;;0.40;0.30;;;6.80;85.70;;;;;;4910170;29;20248;-68
2023/03/27 13:17:15;;;;;;;3.13;0.77;;;7.10;69.40;;;;;;4873316;29;20270;-68
2023/03/27 13:20:30;;;;;;;0.30;0.30;;;6.80;89.00;;;;;;4868502;29;20312;-68
2023/03/27 13:27:15;;;;;;;0.73;0.73;;;6.90;66.40;;;;;;4973672;28;20218;-68
2023/03/27 13:30:33;;;;;;;1.33;1.23;;;6.70;63.60;;;;;;4990008;28;20769;-68
2023/03/27 13:36:48;;;;;;;0.30;0.30;;;6.40;64.70;;;;;;4989182;28;20708;-68
2023/03/27 13:40:09;;;;;;;1.00;0.40;;;5.60;64.40;;;;;;4989718;28;20190;-68
2023/03/27 13:46:00;;;;;;;0.30;0.20;;;5.90;86.20;;;;;;4953533;28;20747;-68
2023/03/27 14:03:34;;;;;;;0.30;0.22;;;3.50;99.90;;;;;;4990067;28;20205;-68
2023/03/27 14:07:00;;;;;;;0.30;0.22;;;3.70;98.80;;;;;;4989753;28;20232;-70
2023/03/27 14:10:23;;;;;;;1.20;0.90;;;3.90;99.10;;;;;;4987477;28;20313;-68
2023/03/27 14:17:17;;;;;;;1.90;1.38;;;4.80;99.30;;;;;;4988350;28;20272;-68
2023/03/27 14:30:52;;;;;;;1.52;1.45;;;5.00;99.90;;;;;;4948550;28;20302;-69
2023/03/27 14:37:38;;;;;;;0.40;0.35;;;5.00;99.70;;;;;;4989964;28;20289;-69
2023/03/27 14:40:35;;;;;;;0.40;0.40;;;4.70;99.90;;;;;;4988711;28;20218;-69
2023/03/27 14:43:06;;;;;;;0.57;0.40;;;5.00;99.90;;;;;;4989240;28;20229;-70
2023/03/27 14:45:37;;;;;;;0.40;0.40;;;5.10;99.00;;;;;;4989486;28;20556;-70
2023/03/27 14:48:07;;;;;;;0.70;0.65;;;6.00;99.90;;;;;;4988773;28;20206;-71
2023/03/27 14:50:37;;;;;;;1.08;0.98;;;6.00;97.20;;;;;;4989557;28;20253;-70
2023/03/27 14:53:08;;;;;;;2.47;2.22;;;6.30;97.00;;;;;;4989611;28;20205;-70
2023/03/27 14:55:38;;;;;;;0.85;0.85;;;6.60;99.90;;;;;;4988768;28;20233;-70
2023/03/27 14:58:17;;;;;;;0.52;0.52;;;6.50;95.10;;;;;;4988481;28;20221;-69
2023/03/27 15:00:49;;;;;;;0.30;0.30;;;6.60;95.30;;;;;;4969485;28;20237;-69
2023/03/27 15:03:18;;;;;;;1.08;0.90;;;7.30;97.10;;;;;;4969750;28;20203;-70
2023/03/27 15:06:04;;;;;;;0.60;0.60;;;8.10;93.70;;;;;;4983514;28;20321;-68
2023/03/27 15:08:35;;;;;;;0.93;0.67;;;8.30;92.20;;;;;;4987970;28;20621;-69
2023/03/27 15:11:08;;;;;;;0.53;0.50;;;8.80;92.50;;;;;;4989095;28;20661;-69
2023/03/27 15:13:37;;;;;;;2.97;0.60;;;8.20;90.50;;;;;;4989100;28;20637;-69
2023/03/27 15:16:07;;;;;;;0.60;0.60;;;8.90;92.90;;;;;;4988678;28;20645;-69
2023/03/27 15:18:37;;;;;;;2.03;1.13;;;8.60;89.80;;;;;;4987362;28;20625;-69
2023/03/27 15:21:07;;;;;;;1.03;0.73;;;8.70;90.50;;;;;;4989143;28;20759;-68
2023/03/27 15:23:38;;;;;;;0.77;0.77;;;8.50;90.60;;;;;;4989045;28;20941;-70
2023/03/27 15:26:10;;;;;;;1.27;1.03;;;8.10;88.70;;;;;;4988915;28;20643;-69
2023/03/27 15:28:42;;;;;;;0.60;0.60;;;8.10;90.50;;;;;;4987253;28;20803;-70
2023/03/27 15:31:09;;;;;;;1.53;1.43;;;7.50;90.10;;;;;;4987656;28;21352;-69
2023/03/27 15:33:41;;;;;;;1.00;0.93;;;7.00;90.00;;;;;;4988556;28;20624;-69
2023/03/27 15:36:21;;;;;;;1.83;1.07;;;6.70;89.60;;;;;;4988582;28;20655;-69
2023/03/27 15:38:49;;;;;;;0.63;0.63;;;6.30;91.60;;;;;;4987146;28;20981;-69
2023/03/27 15:41:41;;;;;;;0.32;0.32;;;6.20;88.80;;;;;;4987792;28;20661;-70
2023/03/27 15:44:15;;;;;;;1.45;0.95;;;6.10;90.40;;;;;;4969641;28;20217;-69
2023/03/27 15:46:49;;;;;;;1.08;0.88;;;5.90;90.40;;;;;;4987768;28;20226;-71
2023/03/27 15:49:21;;;;;;;0.30;0.28;;;5.70;90.50;;;;;;4986847;28;20309;-69
2023/03/27 15:51:47;;;;;;;0.90;0.52;;;5.20;99.00;;;;;;4987677;28;20222;-68
2023/03/27 15:54:29;;;;;;;0.55;0.40;;;4.90;96.70;;;;;;4988267;28;20561;-68
2023/03/27 15:56:57;;;;;;;0.52;0.40;;;5.00;91.90;;;;;;4988346;28;20229;-68
2023/03/27 15:59:26;;;;;;;5.47;0.77;;;4.70;92.40;;;;;;4987100;28;20209;-68
2023/03/27 16:01:58;;;;;;;0.82;0.73;;;4.80;93.10;;;;;;4987786;28;20345;-71
2023/03/27 16:04:27;;;;;;;0.40;0.30;;;4.40;99.90;;;;;;4987911;28;20209;-68
2023/03/27 16:07:05;;;;;;;0.57;0.45;;;4.50;94.70;;;;;;4988013;28;20236;-70
2023/03/27 16:09:39;;;;;;;0.75;0.40;;;4.30;94.60;;;;;;4986736;28;20228;-68
2023/03/27 16:12:06;;;;;;;0.40;0.40;;;4.30;95.10;;;;;;4988082;28;20759;-69
2023/03/27 16:14:42;;;;;;;0.30;0.30;;;4.30;96.20;;;;;;4987784;28;20217;-69
2023/03/27 16:17:18;;;;;;;0.40;0.32;;;3.70;99.90;;;;;;4987710;28;20325;-68
2023/03/27 16:19:51;;;;;;;0.30;0.25;;;3.80;97.90;;;;;;4984939;28;20268;-69
2023/03/27 16:22:26;;;;;;;1.25;0.52;;;3.50;99.70;;;;;;4986953;28;20245;-68
2023/03/27 16:24:53;;;;;;;0.40;0.30;;;3.20;99.90;;;;;;4987252;28;20201;-68
2023/03/27 16:27:22;;;;;;;2.22;1.40;;;3.20;99.90;;;;;;4986370;28;20230;-67
2023/03/27 16:29:50;;;;;;;1.25;0.32;;;3.30;99.90;;;;;;4985175;28;20225;-68
2023/03/27 16:32:18;;;;;;;0.30;0.30;;;3.20;99.90;;;;;;4987229;28;20225;-68
2023/03/27 16:34:46;;;;;;;0.30;0.30;;;3.80;99.90;;;;;;4987367;28;20205;-68
2023/03/27 16:37:14;;;;;;;1.35;1.35;;;3.60;99.90;;;;;;4987412;28;20230;-69
2023/03/27 16:39:42;;;;;;;1.42;1.10;;;3.50;99.90;;;;;;4985949;28;20214;-70
2023/03/27 16:42:12;;;;;;;0.90;0.57;;;3.60;99.90;;;;;;4988493;28;20226;-68
2023/03/27 16:44:39;;;;;;;1.30;1.23;;;;;;;;;;4992028;28;20206;-69
2023/03/27 16:47:07;;;;;;;0.85;0.85;;;3.60;99.90;;;;;;4990566;28;20743;-69
2023/03/27 16:49:34;;;;;;;0.40;0.40;;;3.70;99.90;;;;;;4989898;28;20228;-69
2023/03/27 16:52:01;;;;;;;0.60;0.57;;;3.70;99.90;;;;;;4990818;28;20246;-70
2023/03/27 16:54:28;;;;;;;0.35;0.35;;;3.80;99.90;;;;;;4991072;28;20209;-69
2023/03/27 16:56:55;;;;;;;0.73;0.73;;;4.00;99.90;;;;;;4991165;28;20589;-70
2023/03/27 16:59:22;;;;;;;0.68;0.68;;;4.00;99.90;;;;;;4989469;28;20213;-68
2023/03/27 17:01:49;;;;;;;0.47;0.30;;;3.90;99.90;;;;;;4991151;28;20336;-69